Circle Line Brooklyn — WDE8160 — position and weather

sailwx.info

Track history (hours):
 
Tides and Currents Weather Stations Pressure Air Temp Water Temp Dewpoint Dewpoint Depression Visibility Wind Speed Wind Dir Waves Ship Positions

Circle Line Brooklyn

Owner: Circle Line Sight Seeing Yachts Inc., New York, NY. More information available from US FCC via Universal Licensing System and Coast Guard Vessel Documentation Center.

Last reported at 2016-Sep-25 00:33 UTC. Time now 2016-Sep-25 05:34 UTC.
Position N 40°44' W 074°01'.

MMSI: 367402250.

Date/timePositionNaut miles runAvg speedWind from/ knotsBaromVisibWave heightAir tempDewpointWater temp
2016-Sep-25 00:33N 40°44' W 074°01'2 1.1
2016-Sep-24 22:32N 40°46' W 074°00'0 0.0
2016-Sep-24 21:32N 40°46' W 074°00'0 0.0
2016-Sep-24 19:32N 40°46' W 074°00'0 0.0
2016-Sep-24 18:32N 40°46' W 074°00'0 0.0
2016-Sep-24 17:32N 40°46' W 074°00'3 3.4
2016-Sep-24 16:33N 40°43' W 073°59'3 1.7
2016-Sep-24 14:31N 40°46' W 074°00'0 0.0
2016-Sep-23 19:34N 40°46' W 074°00'0 0.0
2016-Sep-23 17:33N 40°46' W 074°00'0 0.0
2016-Sep-23 16:31N 40°46' W 074°00'4 3.1
2016-Sep-23 15:12N 40°48' W 073°56'4 2.4
2016-Sep-23 13:31N 40°46' W 074°00'2 0.1
2016-Sep-23 00:33N 40°44' W 074°01'3 2.6
2016-Sep-22 23:33N 40°43' W 073°58'3 1.0
2016-Sep-22 20:32N 40°46' W 074°00'0 0.0
2016-Sep-20 17:33N 40°46' W 074°00'5 1.7
2016-Sep-20 14:33N 40°41' W 074°03'5 5.0
2016-Sep-20 13:33N 40°46' W 074°00'3 0.2
2016-Sep-19 23:33N 40°42' W 073°59'3 0.9
2016-Sep-19 19:34N 40°46' W 074°00'0 0.1
2016-Sep-19 18:33N 40°46' W 074°00'0 0.0
2016-Sep-19 16:33N 40°46' W 074°00'0 0.0
2016-Sep-19 14:31N 40°46' W 074°00'0 0.0
2016-Sep-18 19:06N 40°46' W 074°00'3 0.8
2016-Sep-18 15:33N 40°43' W 073°58'4 3.9
2016-Sep-18 14:34N 40°41' W 074°03'5 0.4
2016-Sep-18 01:08N 40°46' W 074°00'5 8.7
2016-Sep-18 00:33N 40°41' W 074°03'5 2.5
2016-Sep-17 22:33N 40°46' W 074°00'3 3.1
2016-Sep-17 21:33N 40°43' W 074°01'2 2.0
2016-Sep-17 20:33N 40°41' W 074°02'5 3.9
2016-Sep-17 19:16N 40°46' W 074°00'0 0.0
2016-Sep-17 04:09N 40°46' W 074°00'0 0.0
2016-Sep-17 00:32N 40°46' W 074°00'2 0.4
2016-Sep-16 17:33N 40°44' W 073°58'2 1.2
2016-Sep-16 15:34N 40°46' W 074°00'0 0.0
2016-Sep-16 02:23N 40°46' W 074°00'3 1.3
2016-Sep-16 00:26N 40°46' W 073°57'3 1.4
2016-Sep-15 22:31N 40°46' W 074°00'0 0.0
2016-Sep-15 21:31N 40°46' W 074°00'0 0.0
2016-Sep-15 20:31N 40°46' W 074°00'0 0.0
2016-Sep-15 18:33N 40°46' W 074°00'  
Track history (hours):
 
Tides and Currents Weather Stations Pressure Air Temp Water Temp Dewpoint Dewpoint Depression Visibility Wind Speed Wind Dir Waves Ship Positions

Circle Line Brooklyn

Owner: Circle Line Sight Seeing Yachts Inc., New York, NY. More information available from US FCC via Universal Licensing System and Coast Guard Vessel Documentation Center.

Last reported at 2016-Sep-25 00:33 UTC. Time now 2016-Sep-25 05:34 UTC.
Position N 40°44' W 074°01'.

MMSI: 367402250.

Date/timePositionNaut miles runAvg speedWind from/ knotsBaromVisibWave heightAir tempDewpointWater temp
2016-Sep-25 00:33N 40°44' W 074°01'2 1.1
2016-Sep-24 22:32N 40°46' W 074°00'0 0.0
2016-Sep-24 21:32N 40°46' W 074°00'0 0.0
2016-Sep-24 19:32N 40°46' W 074°00'0 0.0
2016-Sep-24 18:32N 40°46' W 074°00'0 0.0
2016-Sep-24 17:32N 40°46' W 074°00'3 3.4
2016-Sep-24 16:33N 40°43' W 073°59'3 1.7
2016-Sep-24 14:31N 40°46' W 074°00'0 0.0
2016-Sep-23 19:34N 40°46' W 074°00'0 0.0
2016-Sep-23 17:33N 40°46' W 074°00'0 0.0
2016-Sep-23 16:31N 40°46' W 074°00'4 3.1
2016-Sep-23 15:12N 40°48' W 073°56'4 2.4
2016-Sep-23 13:31N 40°46' W 074°00'2 0.1
2016-Sep-23 00:33N 40°44' W 074°01'3 2.6
2016-Sep-22 23:33N 40°43' W 073°58'3 1.0
2016-Sep-22 20:32N 40°46' W 074°00'0 0.0
2016-Sep-20 17:33N 40°46' W 074°00'5 1.7
2016-Sep-20 14:33N 40°41' W 074°03'5 5.0
2016-Sep-20 13:33N 40°46' W 074°00'3 0.2
2016-Sep-19 23:33N 40°42' W 073°59'3 0.9
2016-Sep-19 19:34N 40°46' W 074°00'0 0.1
2016-Sep-19 18:33N 40°46' W 074°00'0 0.0
2016-Sep-19 16:33N 40°46' W 074°00'0 0.0
2016-Sep-19 14:31N 40°46' W 074°00'0 0.0
2016-Sep-18 19:06N 40°46' W 074°00'3 0.8
2016-Sep-18 15:33N 40°43' W 073°58'4 3.9
2016-Sep-18 14:34N 40°41' W 074°03'5 0.4
2016-Sep-18 01:08N 40°46' W 074°00'5 8.7
2016-Sep-18 00:33N 40°41' W 074°03'5 2.5
2016-Sep-17 22:33N 40°46' W 074°00'3 3.1
2016-Sep-17 21:33N 40°43' W 074°01'2 2.0
2016-Sep-17 20:33N 40°41' W 074°02'5 3.9
2016-Sep-17 19:16N 40°46' W 074°00'0 0.0
2016-Sep-17 04:09N 40°46' W 074°00'0 0.0
2016-Sep-17 00:32N 40°46' W 074°00'2 0.4
2016-Sep-16 17:33N 40°44' W 073°58'2 1.2
2016-Sep-16 15:34N 40°46' W 074°00'0 0.0
2016-Sep-16 02:23N 40°46' W 074°00'3 1.3
2016-Sep-16 00:26N 40°46' W 073°57'3 1.4
2016-Sep-15 22:31N 40°46' W 074°00'0 0.0
2016-Sep-15 21:31N 40°46' W 074°00'0 0.0
2016-Sep-15 20:31N 40°46' W 074°00'0 0.0
2016-Sep-15 18:33N 40°46' W 074°00'  

Dump ship's entire track history